»·PEaware :: N196EC KSAN-KTRM

N196EC :: KSAN-KTRM

FLIGHT INFORMATION

Flight Status: Arrived
Operator: Privately registered:
United States
More flights under this callsign
Pilot: Adrián R. (20842)
Aircraft: CESSNA 172 SKYHAWK
(C172)
More flights by this aircraft type
Origin: KSAN San Diego Intl-Lindbergh
United States
Destination: KTRM Desert Resorts Regl
United States
More flights between these airports :: More routes between these airports
Route: +
File this flight plan on PilotEdge
Remarks:
Altitude:
(Current/Filed)
0ft
Speed:
(Current/Filed)
0kts
Departed: 17-Nov-18 11:17 AM
Arrived: 17-Nov-18 12:11 PM
Distance/Time
Traveled:
75nm/0:53
Distance/Time
To Go:
Arrived

Flight Plot

Page will automatically refresh every two minutes.

Flight plan parsing failed; only flown route is shown


Map Options




Map Legend


Flown Route
Filed Route
Departure Airport
Arrival Airport
Navaid (VOR, NDB)
Fix

Horizontal Profiles

Position Reports

Time Latitude Longitude Heading Altitude Ground
Speed
17-Nov-18 11:12 32.732551 -117.177236 195 21ft 0kts
17-Nov-18 11:13 32.732417 -117.177103 139 22ft 2kts
17-Nov-18 11:14 32.732106 -117.176940 176 22ft 4kts
17-Nov-18 11:15 32.730852 -117.175099 243 24ft 0kts
17-Nov-18 11:16 32.730852 -117.175099 242 24ft 0kts
17-Nov-18 11:17 32.730852 -117.175099 242 24ft 0kts
17-Nov-18 11:18 32.730852 -117.175099 242 24ft 0kts
17-Nov-18 11:19 32.730558 -117.175247 185 22ft 9kts
17-Nov-18 11:20 32.732491 -117.185300 287 116ft 80kts
17-Nov-18 11:21 32.743167 -117.207967 325 828ft 81kts
17-Nov-18 11:22 32.762791 -117.220883 9 1467ft 84kts
17-Nov-18 11:23 32.783532 -117.210879 34 2112ft 81kts
17-Nov-18 11:24 32.805249 -117.209846 355 2711ft 81kts
17-Nov-18 11:25 32.814556 -117.189272 84 3226ft 86kts
17-Nov-18 11:26 32.815949 -117.158134 86 3523ft 107kts
17-Nov-18 11:27 32.818646 -117.121400 82 3521ft 114kts
17-Nov-18 11:28 32.822201 -117.083810 85 3479ft 112kts
17-Nov-18 11:29 32.822529 -117.046317 88 3418ft 113kts
17-Nov-18 11:30 32.824786 -117.009263 79 3496ft 113kts
17-Nov-18 11:31 32.829697 -116.972367 76 3488ft 113kts
17-Nov-18 11:32 32.839452 -116.937099 68 3542ft 112kts
17-Nov-18 11:33 32.851013 -116.903081 66 3888ft 107kts
17-Nov-18 11:34 32.861616 -116.870613 69 4401ft 102kts
17-Nov-18 11:35 32.869165 -116.838461 78 4891ft 98kts
17-Nov-18 11:36 32.874055 -116.806708 73 5306ft 98kts
17-Nov-18 11:37 32.882503 -116.774570 67 5517ft 109kts
17-Nov-18 11:38 32.894641 -116.741306 62 5503ft 110kts
17-Nov-18 11:39 32.910591 -116.710625 45 5580ft 108kts
17-Nov-18 11:40 32.932710 -116.686334 35 5713ft 108kts
17-Nov-18 11:41 32.956649 -116.664845 31 5856ft 108kts
17-Nov-18 11:42 32.982053 -116.645535 27 6008ft 108kts
17-Nov-18 11:43 33.008369 -116.627730 31 6078ft 109kts
17-Nov-18 11:44 33.029123 -116.600855 52 6118ft 111kts
17-Nov-18 11:45 33.045770 -116.569779 56 6142ft 111kts
17-Nov-18 11:46 33.060633 -116.537229 60 6115ft 112kts
17-Nov-18 11:47 33.074612 -116.503746 62 5968ft 115kts
17-Nov-18 11:48 33.088528 -116.469809 62 5816ft 114kts
17-Nov-18 11:49 33.102275 -116.438117 59 5611ft 115kts
17-Nov-18 11:50 33.114930 -116.410984 59 5560ft 109kts
17-Nov-18 11:51 33.130609 -116.379956 55 5536ft 108kts
17-Nov-18 11:52 33.147383 -116.350232 53 5557ft 106kts
17-Nov-18 11:53 33.163015 -116.320938 59 5578ft 106kts
17-Nov-18 11:54 33.179131 -116.290908 57 5542ft 112kts
17-Nov-18 11:55 33.196872 -116.260404 54 5521ft 112kts
17-Nov-18 11:56 33.215106 -116.230289 61 5514ft 112kts
17-Nov-18 11:57 33.228717 -116.203679 56 5500ft 113kts
17-Nov-18 11:58 33.246372 -116.172568 55 5489ft 113kts
17-Nov-18 11:59 33.265012 -116.142324 51 5478ft 113kts
17-Nov-18 12:00 33.285362 -116.111223 53 5195ft 123kts
17-Nov-18 12:01 33.305870 -116.077748 53 4723ft 125kts
17-Nov-18 12:02 33.329135 -116.046902 53 4218ft 125kts
17-Nov-18 12:03 33.357900 -116.030133 354 3693ft 123kts
17-Nov-18 12:04 33.391328 -116.038432 341 3253ft 122kts
17-Nov-18 12:05 33.422548 -116.054158 332 2854ft 122kts
17-Nov-18 12:06 33.453344 -116.070760 334 2468ft 121kts
17-Nov-18 12:07 33.481099 -116.093004 322 2141ft 120kts
17-Nov-18 12:08 33.507317 -116.117477 320 1930ft 119kts
17-Nov-18 12:09 33.533375 -116.141839 322 1724ft 119kts
17-Nov-18 12:10 33.562504 -116.155999 354 1257ft 109kts
17-Nov-18 12:11 33.587250 -116.156203 0 710ft 67kts
17-Nov-18 12:12 33.604341 -116.156425 0 173ft 58kts
17-Nov-18 12:13 33.619694 -116.156478 2 -111ft 45kts
17-Nov-18 12:14 33.626286 -116.157750 0 -111ft 12kts
17-Nov-18 12:15 33.631079 -116.157743 359 -111ft 20kts
17-Nov-18 12:16 33.634121 -116.160110 269 -111ft 16kts
17-Nov-18 12:17 33.634793 -116.162525 340 -111ft 2kts
17-Nov-18 12:18 33.634999 -116.162883 112 -111ft 0kts
17-Nov-18 12:19 33.634999 -116.162883 112 -111ft 0kts
17-Nov-18 12:20 33.635049 -116.162937 94 -111ft 0kts
17-Nov-18 12:21 33.635048 -116.162902 92 -111ft 0kts
17-Nov-18 12:22 33.635048 -116.162902 92 -111ft 0kts

Navigation Log

Ident Type
Flight plan parsing failed, navigation log unavailable